createdAt,value
2018-06-11T00:02:23.280Z,25.40
2018-06-11T00:04:52.585Z,25.20
2018-06-11T00:07:21.978Z,22.97
2018-06-11T00:09:51.264Z,23.53
2018-06-11T00:12:20.546Z,21.27
2018-06-11T00:14:49.967Z,24.70
2018-06-11T00:17:20.168Z,21.80
2018-06-11T00:19:49.616Z,23.00
2018-06-11T00:22:18.938Z,24.00
2018-06-11T00:24:48.338Z,24.80
2018-06-11T00:27:17.770Z,24.37
2018-06-11T00:29:47.012Z,24.33
2018-06-11T00:32:16.259Z,28.30
2018-06-11T00:34:45.463Z,26.80
2018-06-11T00:37:14.362Z,26.27
2018-06-11T00:39:43.520Z,24.77
2018-06-11T00:42:12.816Z,25.10
2018-06-11T00:44:41.855Z,24.67
2018-06-11T00:47:11.006Z,28.40
2018-06-11T00:49:39.919Z,27.00
2018-06-11T00:52:09.132Z,25.80
2018-06-11T00:54:38.607Z,26.07
2018-06-11T00:57:07.858Z,27.40
2018-06-11T00:59:37.180Z,27.87
2018-06-11T01:02:06.580Z,26.37
2018-06-11T01:04:35.911Z,25.17
2018-06-11T01:07:05.147Z,26.10
2018-06-11T01:09:34.438Z,27.53
2018-06-11T01:12:03.774Z,29.73
2018-06-11T01:14:33.123Z,31.73
2018-06-11T01:17:02.880Z,29.00
2018-06-11T01:19:32.244Z,30.07
2018-06-11T01:22:01.489Z,26.90
2018-06-11T01:24:30.863Z,28.63
2018-06-11T01:27:00.123Z,29.50
2018-06-11T01:29:29.066Z,26.63
2018-06-11T01:31:58.224Z,28.87
2018-06-11T01:34:27.455Z,27.67
2018-06-11T01:36:56.835Z,26.90
2018-06-11T01:39:26.097Z,29.00
2018-06-11T01:41:55.393Z,30.30
2018-06-11T01:44:24.625Z,28.57
2018-06-11T01:46:53.897Z,29.70
2018-06-11T01:49:23.267Z,28.70
2018-06-11T01:51:52.631Z,29.53
2018-06-11T01:54:21.927Z,33.57
2018-06-11T01:56:51.227Z,33.70
2018-06-11T01:59:20.475Z,28.03
2018-06-11T02:01:49.801Z,29.97
2018-06-11T02:04:19.057Z,30.93
2018-06-11T02:06:48.321Z,28.67
2018-06-11T02:09:17.568Z,29.33
2018-06-11T02:11:46.914Z,32.40
2018-06-11T02:14:15.838Z,31.57
2018-06-11T02:16:45.013Z,32.87
2018-06-11T02:19:14.263Z,33.83
2018-06-11T02:21:43.596Z,33.77
2018-06-11T02:24:12.848Z,35.97
2018-06-11T02:26:42.138Z,31.63
2018-06-11T02:29:11.434Z,32.00
2018-06-11T02:31:40.869Z,31.03
2018-06-11T02:34:10.138Z,30.17
2018-06-11T02:36:39.388Z,29.13
2018-06-11T02:39:09.248Z,30.70
2018-06-11T02:41:38.665Z,31.07
2018-06-11T02:44:07.889Z,29.03
2018-06-11T02:46:37.170Z,34.17
2018-06-11T02:49:06.578Z,34.50
2018-06-11T02:51:35.857Z,34.30
2018-06-11T02:54:05.094Z,32.67
2018-06-11T02:56:34.398Z,34.23
2018-06-11T02:59:04.474Z,34.50
2018-06-11T03:01:33.782Z,35.10
2018-06-11T03:04:03.171Z,32.90
2018-06-11T03:06:32.422Z,31.60
2018-06-11T03:09:01.784Z,32.07
2018-06-11T03:11:31.060Z,30.37
2018-06-11T03:14:00.364Z,31.17
2018-06-11T03:16:29.623Z,32.60
2018-06-11T03:18:58.553Z,32.57
2018-06-11T03:21:27.718Z,30.10
2018-06-11T03:23:57.055Z,32.50
2018-06-11T03:26:26.280Z,31.57
2018-06-11T03:28:55.524Z,31.40
2018-06-11T03:31:24.454Z,32.50
2018-06-11T03:33:53.626Z,38.47
2018-06-11T03:36:22.909Z,32.10
2018-06-11T03:38:52.286Z,34.87
2018-06-11T03:41:21.578Z,35.00
2018-06-11T03:43:50.868Z,35.40
2018-06-11T03:46:20.115Z,32.80
2018-06-11T03:48:49.371Z,32.73
2018-06-11T03:51:18.672Z,34.63
2018-06-11T03:53:47.935Z,33.30
2018-06-11T03:56:17.175Z,32.30
2018-06-11T03:58:46.541Z,34.17
2018-06-11T04:01:15.809Z,32.73
2018-06-11T04:03:45.053Z,32.00
2018-06-11T04:06:14.387Z,35.47
2018-06-11T04:08:43.682Z,35.27
2018-06-11T04:11:12.962Z,32.70
2018-06-11T04:13:42.195Z,34.70
2018-06-11T04:16:12.454Z,34.57
2018-06-11T04:18:41.704Z,32.13
2018-06-11T04:21:10.984Z,31.60
2018-06-11T04:23:40.286Z,33.10
2018-06-11T04:26:09.574Z,33.40
2018-06-11T04:28:38.846Z,36.27
2018-06-11T04:31:08.119Z,34.00
2018-06-11T04:33:37.387Z,33.10
2018-06-11T04:36:06.765Z,34.90
2018-06-11T04:38:36.028Z,35.77
2018-06-11T04:41:04.956Z,33.10
2018-06-11T04:43:34.172Z,34.90
2018-06-11T04:46:03.479Z,32.73
2018-06-11T04:48:32.837Z,31.83
2018-06-11T04:51:02.175Z,31.43
2018-06-11T04:53:31.492Z,32.33
2018-06-11T04:56:00.775Z,35.33
2018-06-11T04:58:30.036Z,33.00
2018-06-11T05:00:59.557Z,34.03
2018-06-11T05:03:28.898Z,35.77
2018-06-11T05:05:58.250Z,32.40
2018-06-11T05:08:27.549Z,37.00
2018-06-11T05:10:56.495Z,34.30
2018-06-11T05:13:25.666Z,35.27
2018-06-11T05:15:55.498Z,36.00
2018-06-11T05:18:24.799Z,32.37
2018-06-11T05:20:54.099Z,31.93
2018-06-11T05:23:23.348Z,36.03
2018-06-11T05:25:52.612Z,37.33
2018-06-11T05:28:21.912Z,31.43
2018-06-11T05:30:51.169Z,33.57
2018-06-11T05:33:20.566Z,32.47
2018-06-11T05:35:49.980Z,35.10
2018-06-11T05:38:19.312Z,35.37
2018-06-11T05:40:49.337Z,32.80
2018-06-11T05:43:18.824Z,34.07
2018-06-11T05:45:48.582Z,37.00
2018-06-11T05:48:18.313Z,33.20
2018-06-11T05:50:48.427Z,34.70
2018-06-11T05:53:17.683Z,33.00
2018-06-11T05:55:46.958Z,31.63
2018-06-11T05:58:16.324Z,33.63
2018-06-11T06:00:45.727Z,33.63
2018-06-11T06:03:15.262Z,33.00
2018-06-11T06:05:44.616Z,31.77
2018-06-11T06:08:13.902Z,35.73
2018-06-11T06:10:43.204Z,32.03
2018-06-11T06:13:12.113Z,33.30
2018-06-11T06:15:41.297Z,33.77
2018-06-11T06:18:10.583Z,34.07
2018-06-11T06:20:39.620Z,31.13
2018-06-11T06:23:08.759Z,31.07
2018-06-11T06:25:38.033Z,33.30
2018-06-11T06:28:07.330Z,34.90
2018-06-11T06:30:36.585Z,36.90
2018-06-11T06:33:05.891Z,30.90
2018-06-11T06:35:35.259Z,29.17
2018-06-11T06:38:05.896Z,30.60
2018-06-11T06:40:35.247Z,26.93
2018-06-11T06:43:05.821Z,29.97
2018-06-11T06:45:35.101Z,33.90
2018-06-11T06:48:04.865Z,29.60
2018-06-11T06:50:34.205Z,28.40
2018-06-11T06:53:03.542Z,28.97
2018-06-11T06:55:35.524Z,30.97
2018-06-11T06:58:05.342Z,28.97
2018-06-11T07:00:34.675Z,30.30
2018-06-11T07:03:04.006Z,29.27
2018-06-11T07:05:33.317Z,29.50
2018-06-11T07:08:02.711Z,32.10
2018-06-11T07:10:32.007Z,29.83
2018-06-11T07:13:01.342Z,29.07
2018-06-11T07:15:30.884Z,25.90
2018-06-11T07:18:00.313Z,27.43
2018-06-11T07:20:30.279Z,26.80
2018-06-11T07:22:59.560Z,28.23
2018-06-11T07:25:28.829Z,28.43
2018-06-11T07:27:58.115Z,29.57
2018-06-11T07:30:27.671Z,27.17
2018-06-11T07:32:56.620Z,30.10
2018-06-11T07:35:25.901Z,29.27
2018-06-11T07:37:56.061Z,28.43
2018-06-11T07:40:25.490Z,25.27
2018-06-11T07:42:55.398Z,27.23
2018-06-11T07:45:24.691Z,27.67
2018-06-11T07:47:54.045Z,28.27
2018-06-11T07:50:23.416Z,29.10
2018-06-11T07:52:52.741Z,28.40
2018-06-11T07:55:22.202Z,26.17
2018-06-11T07:57:51.495Z,29.57
2018-06-11T08:00:20.943Z,26.20
2018-06-11T08:02:50.304Z,28.47
2018-06-11T08:05:20.383Z,25.83
2018-06-11T08:07:49.767Z,26.43
2018-06-11T08:10:19.138Z,24.50
2018-06-11T08:12:48.592Z,26.07
2018-06-11T08:15:17.928Z,29.23
2018-06-11T08:17:47.477Z,29.80
2018-06-11T08:20:16.771Z,28.73
2018-06-11T08:22:46.081Z,28.87
2018-06-11T08:25:15.511Z,29.97
2018-06-11T08:27:44.907Z,28.60
2018-06-11T08:30:14.227Z,29.57
2018-06-11T08:32:43.607Z,28.77
2018-06-11T08:35:12.975Z,28.27
2018-06-11T08:37:42.354Z,29.63
2018-06-11T08:40:12.613Z,29.47
2018-06-11T08:42:42.136Z,27.40
2018-06-11T08:45:11.526Z,28.43
2018-06-11T08:47:40.831Z,27.20
2018-06-11T08:50:11.937Z,26.50
2018-06-11T08:52:41.177Z,27.00
2018-06-11T08:55:10.541Z,27.53
2018-06-11T08:57:39.791Z,26.30
2018-06-11T09:00:09.167Z,26.60
2018-06-11T09:02:38.549Z,28.33
2018-06-11T09:05:07.855Z,27.57
2018-06-11T09:07:37.185Z,31.13
2018-06-11T09:10:07.103Z,27.67
2018-06-11T09:12:36.394Z,29.20
2018-06-11T09:15:05.803Z,25.93
2018-06-11T09:17:35.387Z,29.07
2018-06-11T09:20:04.943Z,27.30
2018-06-11T09:22:34.325Z,26.17
2018-06-11T09:25:04.616Z,24.90
2018-06-11T09:27:34.160Z,26.00
2018-06-11T09:30:04.022Z,23.10
2018-06-11T09:32:35.050Z,28.83
2018-06-11T09:35:04.114Z,24.07
2018-06-11T09:37:33.311Z,29.27
2018-06-11T09:40:02.669Z,24.53
2018-06-11T09:42:32.167Z,23.97
2018-06-11T09:45:01.588Z,25.80
2018-06-11T09:47:30.911Z,24.30
2018-06-11T09:49:59.902Z,23.37
2018-06-11T09:52:29.103Z,23.30
2018-06-11T09:54:58.758Z,22.90
2018-06-11T09:57:28.064Z,25.70
2018-06-11T09:59:58.121Z,24.60
2018-06-11T10:02:27.524Z,23.20
2018-06-11T10:04:57.112Z,23.90
2018-06-11T10:07:26.399Z,25.50
2018-06-11T10:09:56.479Z,23.60
2018-06-11T10:12:26.963Z,26.87
2018-06-11T10:14:57.974Z,24.50
2018-06-11T10:17:27.495Z,22.97
2018-06-11T10:19:56.892Z,23.90
2018-06-11T10:22:26.282Z,21.43
2018-06-11T10:24:55.784Z,22.43
2018-06-11T10:27:25.080Z,21.60
2018-06-11T10:29:54.567Z,21.57
2018-06-11T10:32:23.954Z,22.17
2018-06-11T10:34:53.254Z,24.17
2018-06-11T10:37:22.617Z,24.10
2018-06-11T10:39:52.964Z,21.80
2018-06-11T10:42:22.376Z,22.00
2018-06-11T10:44:51.674Z,22.00
2018-06-11T10:47:22.214Z,22.27
2018-06-11T10:49:51.544Z,21.43
2018-06-11T10:52:20.513Z,21.47
2018-06-11T10:54:49.715Z,21.73
2018-06-11T10:57:19.048Z,22.70
2018-06-11T10:59:48.367Z,20.07
2018-06-11T11:02:18.401Z,21.57
2018-06-11T11:04:47.478Z,21.30
2018-06-11T11:07:17.793Z,22.77
2018-06-11T11:09:47.149Z,24.70
2018-06-11T11:12:16.528Z,22.27
2018-06-11T11:14:45.985Z,23.33
2018-06-11T11:17:15.969Z,20.87
2018-06-11T11:19:45.277Z,24.60
2018-06-11T11:22:15.138Z,24.43
2018-06-11T11:24:44.459Z,27.10
2018-06-11T11:27:13.808Z,23.90
2018-06-11T11:29:42.781Z,23.57
2018-06-11T11:32:11.952Z,23.47
2018-06-11T11:34:41.454Z,25.17
2018-06-11T11:37:10.718Z,27.90
2018-06-11T11:39:40.031Z,23.43
2018-06-11T11:42:09.359Z,23.00
2018-06-11T11:44:38.768Z,22.03
2018-06-11T11:47:08.177Z,23.23
2018-06-11T11:49:37.572Z,22.97
2018-06-11T11:52:07.985Z,26.97
2018-06-11T11:54:37.304Z,24.73
2018-06-11T11:57:06.660Z,22.53
2018-06-11T11:59:36.297Z,23.87
2018-06-11T12:02:06.468Z,27.10
2018-06-11T12:04:35.866Z,22.37
2018-06-11T12:07:05.863Z,23.80
2018-06-11T12:09:37.296Z,24.03
2018-06-11T12:12:07.657Z,22.53
2018-06-11T12:14:37.265Z,24.30
2018-06-11T12:17:06.916Z,22.40
2018-06-11T12:19:36.301Z,23.53
2018-06-11T12:22:06.367Z,22.03
2018-06-11T12:24:35.673Z,23.17
2018-06-11T12:27:05.049Z,25.80
2018-06-11T12:29:34.349Z,24.70
2018-06-11T12:32:03.618Z,22.27
2018-06-11T12:34:32.951Z,22.80
2018-06-11T12:37:02.364Z,21.20
2018-06-11T12:39:31.759Z,22.63
2018-06-11T12:42:01.649Z,22.10
2018-06-11T12:44:31.035Z,23.30
2018-06-11T12:47:00.361Z,22.67
2018-06-11T12:49:29.765Z,21.37
2018-06-11T12:51:59.016Z,22.70
2018-06-11T12:54:28.289Z,22.87
2018-06-11T12:56:57.239Z,22.83
2018-06-11T12:59:26.157Z,23.07
2018-06-11T13:01:55.339Z,23.17
2018-06-11T13:04:24.643Z,22.97
2018-06-11T13:06:54.034Z,24.60
2018-06-11T13:09:24.478Z,22.57
2018-06-11T13:11:54.331Z,21.70
2018-06-11T13:14:23.799Z,19.73
2018-06-11T13:16:53.379Z,21.50
2018-06-11T13:19:22.721Z,22.33
2018-06-11T13:21:52.089Z,22.00
2018-06-11T13:24:21.525Z,20.73
2018-06-11T13:26:50.998Z,21.43
2018-06-11T13:29:20.420Z,20.03
2018-06-11T13:31:49.764Z,22.20
2018-06-11T13:34:19.143Z,20.10
2018-06-11T13:36:48.404Z,20.00
2018-06-11T13:39:17.687Z,21.93
2018-06-11T13:41:47.138Z,19.17
2018-06-11T13:44:16.468Z,22.17
2018-06-11T13:46:45.809Z,22.17
2018-06-11T13:49:15.129Z,21.10
2018-06-11T13:51:44.425Z,19.70
2018-06-11T13:54:13.726Z,18.80
2018-06-11T13:56:43.051Z,20.30
2018-06-11T13:59:12.311Z,20.53
2018-06-11T14:01:41.696Z,20.97
2018-06-11T14:04:11.086Z,20.30
2018-06-11T14:06:40.377Z,17.90
2018-06-11T14:09:10.420Z,19.83
2018-06-11T14:11:39.712Z,19.43
2018-06-11T14:14:09.134Z,18.10
2018-06-11T14:16:38.442Z,18.90
2018-06-11T14:19:07.734Z,18.60
2018-06-11T14:21:37.052Z,18.37
2018-06-11T14:24:07.174Z,18.80
2018-06-11T14:26:36.549Z,18.67
2018-06-11T14:29:05.849Z,18.53
2018-06-11T14:31:35.267Z,20.00
2018-06-11T14:34:05.222Z,19.20
2018-06-11T14:36:34.234Z,20.40
2018-06-11T14:39:03.996Z,19.53
2018-06-11T14:41:33.388Z,20.13
2018-06-11T14:44:03.744Z,18.27
2018-06-11T14:46:32.996Z,19.07
2018-06-11T14:49:02.598Z,18.80
2018-06-11T14:51:31.975Z,18.57
2018-06-11T14:54:02.112Z,17.50
2018-06-11T14:56:31.451Z,17.60
2018-06-11T14:59:00.827Z,19.00
2018-06-11T15:01:30.152Z,17.63
2018-06-11T15:03:59.466Z,19.13
2018-06-11T15:06:28.442Z,19.03
2018-06-11T15:08:58.568Z,21.70
2018-06-11T15:11:28.036Z,18.07
2018-06-11T15:13:57.352Z,18.67
2018-06-11T15:16:26.816Z,23.87
2018-06-11T15:18:56.246Z,22.17
2018-06-11T15:21:25.707Z,22.33
2018-06-11T15:23:54.987Z,20.97
2018-06-11T15:26:24.346Z,20.90
2018-06-11T15:28:53.966Z,25.27
2018-06-11T15:31:23.264Z,22.73
2018-06-11T15:33:52.605Z,23.00
2018-06-11T15:36:21.918Z,19.80
2018-06-11T15:38:51.374Z,20.50
2018-06-11T15:41:20.720Z,23.20
2018-06-11T15:43:50.039Z,24.67
2018-06-11T15:46:19.353Z,22.10
2018-06-11T15:48:48.309Z,22.83
2018-06-11T15:51:17.520Z,24.20
2018-06-11T15:53:46.990Z,20.80
2018-06-11T15:56:16.458Z,24.07
2018-06-11T15:58:45.859Z,23.93
2018-06-11T16:01:15.153Z,23.17
2018-06-11T16:03:44.532Z,24.70
2018-06-11T16:06:13.881Z,24.70
2018-06-11T16:08:43.312Z,23.43
2018-06-11T16:11:12.726Z,23.50
2018-06-11T16:13:42.105Z,24.00
2018-06-11T16:16:11.442Z,22.43
2018-06-11T16:18:40.697Z,26.00
2018-06-11T16:21:10.017Z,23.50
2018-06-11T16:23:39.327Z,22.83
2018-06-11T16:26:08.590Z,20.60
2018-06-11T16:28:37.857Z,18.87
2018-06-11T16:31:07.230Z,18.40
2018-06-11T16:33:36.537Z,21.20
2018-06-11T16:36:06.023Z,21.13
2018-06-11T16:38:35.499Z,20.17
2018-06-11T16:41:04.916Z,19.33
2018-06-11T16:43:34.224Z,16.03
2018-06-11T16:46:03.526Z,15.80
2018-06-11T16:48:32.474Z,14.70
2018-06-11T16:51:01.651Z,16.00
2018-06-11T16:53:30.909Z,15.43
2018-06-11T16:56:00.235Z,14.83
2018-06-11T16:58:29.521Z,14.57
2018-06-11T17:00:58.910Z,14.33
2018-06-11T17:03:28.202Z,14.23
2018-06-11T17:05:57.519Z,14.43
2018-06-11T17:08:26.797Z,17.63
2018-06-11T17:10:56.562Z,13.23
2018-06-11T17:13:26.005Z,14.30
2018-06-11T17:15:55.289Z,12.10
2018-06-11T17:18:25.348Z,13.10
2018-06-11T17:20:54.643Z,12.60
2018-06-11T17:23:23.939Z,12.50
2018-06-11T17:25:53.324Z,11.37
2018-06-11T17:28:22.756Z,11.30
2018-06-11T17:30:52.737Z,11.40
2018-06-11T17:33:21.998Z,10.37
2018-06-11T17:35:51.363Z,9.37
2018-06-11T17:38:20.730Z,10.03
2018-06-11T17:40:50.189Z,8.93
2018-06-11T17:43:19.586Z,9.37
2018-06-11T17:45:48.905Z,9.73
2018-06-11T17:48:18.275Z,9.30
2018-06-11T17:50:47.623Z,8.90
2018-06-11T17:53:16.973Z,9.60
2018-06-11T17:55:46.371Z,8.87
2018-06-11T17:58:15.637Z,9.50
2018-06-11T18:00:44.959Z,8.60
2018-06-11T18:03:14.291Z,10.40
2018-06-11T18:05:44.555Z,9.00
2018-06-11T18:08:13.859Z,8.33
2018-06-11T18:10:43.185Z,10.70
2018-06-11T18:13:12.478Z,10.53
2018-06-11T18:15:41.750Z,9.33
2018-06-11T18:18:11.017Z,9.63
2018-06-11T18:20:40.394Z,10.67
2018-06-11T18:23:09.648Z,10.40
2018-06-11T18:25:38.979Z,10.13
2018-06-11T18:28:08.460Z,10.20
2018-06-11T18:30:37.390Z,15.50
2018-06-11T18:33:06.630Z,9.43
2018-06-11T18:35:36.010Z,10.50
2018-06-11T18:38:05.323Z,10.40
2018-06-11T18:40:35.717Z,11.37
2018-06-11T18:43:05.010Z,12.63
2018-06-11T18:45:34.359Z,11.00
2018-06-11T18:48:03.833Z,10.30
2018-06-11T18:50:33.084Z,10.93
2018-06-11T18:53:02.335Z,11.20
2018-06-11T18:55:31.605Z,11.03
2018-06-11T18:58:00.932Z,11.10
2018-06-11T19:00:30.197Z,11.20
2018-06-11T19:02:59.451Z,9.10
2018-06-11T19:05:28.743Z,8.23
2018-06-11T19:07:58.009Z,10.97
2018-06-11T19:10:27.266Z,11.67
2018-06-11T19:12:56.525Z,11.93
2018-06-11T19:15:25.832Z,11.60
2018-06-11T19:17:55.138Z,11.17
2018-06-11T19:20:24.389Z,11.93
2018-06-11T19:22:53.679Z,12.60
2018-06-11T19:25:23.107Z,13.90
2018-06-11T19:27:52.383Z,11.40
2018-06-11T19:30:21.328Z,11.43
2018-06-11T19:32:50.419Z,11.53
2018-06-11T19:35:19.695Z,10.90
2018-06-11T19:37:48.936Z,13.33
2018-06-11T19:40:19.238Z,12.00
2018-06-11T19:42:48.501Z,11.50
2018-06-11T19:45:17.781Z,12.40
2018-06-11T19:47:47.034Z,11.90
2018-06-11T19:50:16.403Z,11.33
2018-06-11T19:52:45.570Z,12.10
2018-06-11T19:55:14.872Z,33.47
2018-06-11T19:57:44.168Z,12.87
2018-06-11T20:00:13.108Z,13.20
2018-06-11T20:02:42.249Z,13.57
2018-06-11T20:05:11.545Z,12.53
2018-06-11T20:07:40.824Z,14.00
2018-06-11T20:10:13.057Z,15.80
2018-06-11T20:12:43.104Z,12.50
2018-06-11T20:15:12.404Z,12.67
2018-06-11T20:17:41.724Z,12.40
2018-06-11T20:20:11.017Z,11.80
2018-06-11T20:22:40.256Z,11.53
2018-06-11T20:25:09.577Z,11.70
2018-06-11T20:27:38.988Z,13.10
2018-06-11T20:30:08.314Z,12.57
2018-06-11T20:32:37.627Z,12.20
2018-06-11T20:35:07.022Z,13.47
2018-06-11T20:37:36.299Z,11.93
2018-06-11T20:40:05.676Z,12.80
2018-06-11T20:42:34.587Z,11.80
2018-06-11T20:45:04.536Z,13.17
2018-06-11T20:47:34.581Z,12.87
2018-06-11T20:50:03.967Z,13.30
2018-06-11T20:52:33.257Z,12.87
2018-06-11T20:55:02.606Z,12.60
2018-06-11T20:57:31.905Z,13.93
2018-06-11T21:00:01.233Z,14.00
2018-06-11T21:02:30.618Z,14.80
2018-06-11T21:05:00.046Z,12.93
2018-06-11T21:07:29.313Z,13.83
2018-06-11T21:09:58.617Z,13.63
2018-06-11T21:12:27.929Z,14.97
2018-06-11T21:14:57.165Z,14.03
2018-06-11T21:17:26.463Z,14.87
2018-06-11T21:19:55.773Z,13.10
2018-06-11T21:22:25.013Z,14.03
2018-06-11T21:24:54.314Z,13.80
2018-06-11T21:27:23.547Z,11.20
2018-06-11T21:29:52.852Z,14.03
2018-06-11T21:32:22.294Z,13.43
2018-06-11T21:34:51.597Z,13.07
2018-06-11T21:37:21.361Z,14.40
2018-06-11T21:39:51.418Z,13.20
2018-06-11T21:42:20.742Z,14.07
2018-06-11T21:44:49.998Z,14.23
2018-06-11T21:47:19.357Z,14.07
2018-06-11T21:49:48.653Z,13.07
2018-06-11T21:52:17.911Z,14.30
2018-06-11T21:54:48.251Z,13.27
2018-06-11T21:57:17.510Z,13.37
2018-06-11T21:59:46.760Z,12.47
2018-06-11T22:02:16.152Z,13.13
2018-06-11T22:04:45.480Z,13.47
2018-06-11T22:07:14.829Z,13.10
2018-06-11T22:09:44.153Z,13.40
2018-06-11T22:12:13.422Z,13.80
2018-06-11T22:14:42.709Z,14.63
2018-06-11T22:17:12.011Z,14.10
2018-06-11T22:19:41.294Z,13.60
2018-06-11T22:22:10.555Z,11.87
2018-06-11T22:24:39.852Z,14.37
2018-06-11T22:27:09.160Z,12.47
2018-06-11T22:29:38.557Z,15.13
2018-06-11T22:32:07.855Z,13.73
2018-06-11T22:34:37.351Z,13.47
2018-06-11T22:37:06.666Z,13.43
2018-06-11T22:39:35.986Z,12.40
2018-06-11T22:42:05.390Z,12.10
2018-06-11T22:44:34.643Z,14.53
2018-06-11T22:47:04.269Z,13.10
2018-06-11T22:49:33.315Z,12.70
2018-06-11T22:52:02.481Z,12.47
2018-06-11T22:54:31.761Z,11.00
2018-06-11T22:57:01.005Z,11.87
2018-06-11T22:59:30.411Z,11.73
2018-06-11T23:01:59.729Z,11.97
2018-06-11T23:04:29.167Z,11.70
2018-06-11T23:06:58.149Z,12.47
2018-06-11T23:09:27.392Z,11.80
2018-06-11T23:11:56.816Z,12.40
2018-06-11T23:14:26.100Z,10.80
2018-06-11T23:16:55.496Z,12.63
2018-06-11T23:19:24.791Z,11.73
2018-06-11T23:21:54.152Z,12.27
2018-06-11T23:24:23.421Z,11.13
2018-06-11T23:26:52.733Z,10.60
2018-06-11T23:29:22.104Z,9.73
2018-06-11T23:31:51.439Z,10.93
2018-06-11T23:34:20.865Z,12.13
2018-06-11T23:36:50.198Z,11.30
2018-06-11T23:39:19.675Z,11.10
2018-06-11T23:41:49.117Z,11.87
2018-06-11T23:44:18.284Z,10.80
2018-06-11T23:46:47.214Z,10.27
2018-06-11T23:49:16.408Z,10.37
2018-06-11T23:51:46.502Z,10.13
2018-06-11T23:54:15.889Z,10.80
2018-06-11T23:56:45.152Z,11.27
2018-06-11T23:59:14.407Z,11.27
